createdAt,value
2023-03-22T00:02:08.284Z,11.48
2023-03-22T00:04:34.948Z,10.00
2023-03-22T00:07:01.570Z,10.65
2023-03-22T00:09:28.285Z,9.80
2023-03-22T00:11:54.917Z,10.05
2023-03-22T00:14:21.760Z,10.48
2023-03-22T00:16:49.247Z,10.38
2023-03-22T00:19:17.469Z,10.25
2023-03-22T00:21:44.357Z,10.75
2023-03-22T00:24:11.116Z,11.20
2023-03-22T00:26:37.873Z,9.70
2023-03-22T00:29:05.653Z,10.13
2023-03-22T00:31:32.379Z,10.18
2023-03-22T00:33:59.146Z,9.85
2023-03-22T00:36:25.924Z,9.25
2023-03-22T00:38:52.635Z,9.25
2023-03-22T00:41:21.503Z,7.82
2023-03-22T00:43:49.494Z,8.93
2023-03-22T00:46:17.985Z,9.48
2023-03-22T00:48:44.745Z,8.77
2023-03-22T00:51:12.337Z,9.48
2023-03-22T00:53:42.534Z,9.95
2023-03-22T00:56:10.875Z,9.63
2023-03-22T00:58:45.359Z,10.88
2023-03-22T01:01:14.066Z,9.75
2023-03-22T01:03:42.229Z,8.98
2023-03-22T01:06:11.002Z,9.80
2023-03-22T01:08:38.870Z,9.68
2023-03-22T01:11:07.061Z,9.70
2023-03-22T01:13:34.241Z,9.65
2023-03-22T01:16:01.092Z,10.07
2023-03-22T01:18:27.816Z,9.15
2023-03-22T01:20:54.753Z,9.27
2023-03-22T01:23:21.580Z,8.50
2023-03-22T01:25:48.177Z,9.23
2023-03-22T01:28:14.853Z,8.60
2023-03-22T01:30:42.185Z,8.10
2023-03-22T01:33:09.214Z,6.97
2023-03-22T01:35:36.521Z,7.82
2023-03-22T01:38:04.702Z,7.63
2023-03-22T01:40:34.840Z,8.13
2023-03-22T01:43:02.240Z,7.35
2023-03-22T01:45:35.751Z,6.97
2023-03-22T01:48:06.909Z,7.15
2023-03-22T01:50:39.040Z,6.63
2023-03-22T01:53:07.632Z,6.50
2023-03-22T01:55:36.100Z,5.93
2023-03-22T01:58:09.484Z,6.68
2023-03-22T02:00:49.694Z,5.05
2023-03-22T02:03:35.786Z,6.30
2023-03-22T02:06:02.897Z,5.05
2023-03-22T02:08:30.686Z,5.53
2023-03-22T02:11:05.433Z,5.25
2023-03-22T02:14:00.358Z,4.70
2023-03-22T02:16:53.905Z,4.00
2023-03-22T02:19:34.290Z,5.18
2023-03-22T02:22:25.954Z,3.92
2023-03-22T02:25:17.648Z,4.10
2023-03-22T02:28:07.755Z,4.13
2023-03-22T02:30:46.524Z,3.83
2023-03-22T02:33:22.514Z,3.70
2023-03-22T02:35:54.960Z,4.00
2023-03-22T02:38:52.577Z,3.85
2023-03-22T02:41:47.662Z,3.13
2023-03-22T02:44:38.266Z,3.95
2023-03-22T02:47:28.559Z,3.45
2023-03-22T02:49:56.764Z,3.50
2023-03-22T02:52:53.155Z,3.78
2023-03-22T02:55:39.682Z,3.88
2023-03-22T02:58:22.384Z,3.78
2023-03-22T03:00:53.293Z,4.28
2023-03-22T03:03:21.194Z,3.50
2023-03-22T03:05:55.232Z,4.20
2023-03-22T03:08:22.408Z,3.60
2023-03-22T03:10:50.349Z,3.65
2023-03-22T03:13:18.476Z,3.67
2023-03-22T03:15:50.022Z,4.28
2023-03-22T03:18:40.853Z,3.55
2023-03-22T03:21:17.056Z,4.47
2023-03-22T03:23:57.241Z,4.07
2023-03-22T03:26:51.893Z,4.20
2023-03-22T03:29:42.777Z,3.60
2023-03-22T03:32:35.340Z,3.45
2023-03-22T03:35:22.272Z,3.60
2023-03-22T03:37:52.843Z,3.97
2023-03-22T03:40:34.234Z,3.83
2023-03-22T03:43:04.031Z,3.65
2023-03-22T03:45:30.924Z,3.45
2023-03-22T03:47:59.588Z,3.75
2023-03-22T03:50:26.816Z,3.55
2023-03-22T03:52:55.890Z,4.28
2023-03-22T03:55:23.933Z,4.32
2023-03-22T03:57:50.826Z,2.97
2023-03-22T04:00:18.016Z,3.35
2023-03-22T04:03:05.841Z,3.80
2023-03-22T04:05:51.357Z,3.45
2023-03-22T04:08:18.043Z,4.57
2023-03-22T04:10:49.797Z,4.15
2023-03-22T04:13:16.758Z,4.43
2023-03-22T04:15:43.430Z,5.07
2023-03-22T04:18:13.907Z,5.20
2023-03-22T04:20:41.800Z,5.65
2023-03-22T04:23:11.593Z,6.10
2023-03-22T04:25:39.174Z,7.15
2023-03-22T04:28:09.910Z,8.15
2023-03-22T04:30:37.539Z,7.97
2023-03-22T04:33:24.272Z,8.40
2023-03-22T04:36:16.056Z,9.00
2023-03-22T04:39:05.834Z,9.85
2023-03-22T04:41:34.029Z,9.48
2023-03-22T04:44:03.465Z,10.35
2023-03-22T04:46:35.715Z,10.43
2023-03-22T04:49:05.836Z,11.05
2023-03-22T04:51:36.379Z,10.88
2023-03-22T04:54:26.101Z,12.02
2023-03-22T04:56:53.072Z,12.38
2023-03-22T04:59:22.292Z,12.07
2023-03-22T05:01:51.392Z,11.30
2023-03-22T05:04:21.563Z,10.88
2023-03-22T05:06:52.322Z,11.20
2023-03-22T05:09:28.395Z,11.50
2023-03-22T05:11:55.831Z,11.50
2023-03-22T05:14:29.442Z,12.38
2023-03-22T05:16:56.288Z,12.10
2023-03-22T05:19:24.424Z,12.15
2023-03-22T05:21:58.608Z,12.38
2023-03-22T05:24:38.223Z,11.50
2023-03-22T05:27:05.858Z,12.18
2023-03-22T05:29:37.062Z,13.05
2023-03-22T05:32:14.336Z,12.40
2023-03-22T05:34:41.938Z,12.95
2023-03-22T05:37:21.090Z,12.15
2023-03-22T05:39:51.615Z,12.35
2023-03-22T05:42:18.951Z,11.95
2023-03-22T05:44:45.772Z,13.32
2023-03-22T05:47:13.434Z,12.48
2023-03-22T05:49:51.449Z,13.38
2023-03-22T05:52:18.617Z,12.90
2023-03-22T05:57:19.512Z,10.90
2023-03-22T05:59:46.117Z,11.82
2023-03-22T06:02:19.128Z,11.73
2023-03-22T06:04:46.707Z,11.18
2023-03-22T06:07:15.877Z,11.68
2023-03-22T06:09:46.938Z,11.68
2023-03-22T06:12:19.842Z,11.77
2023-03-22T06:14:51.387Z,11.17
2023-03-22T06:17:32.765Z,10.55
2023-03-22T06:19:59.506Z,10.60
2023-03-22T06:22:26.344Z,10.45
2023-03-22T06:24:53.027Z,11.50
2023-03-22T06:27:29.979Z,11.57
2023-03-22T06:29:56.987Z,11.20
2023-03-22T06:32:26.722Z,10.50
2023-03-22T06:34:55.125Z,10.75
2023-03-22T06:37:24.336Z,10.30
2023-03-22T06:39:52.226Z,10.50
2023-03-22T06:42:20.303Z,10.80
2023-03-22T06:44:53.406Z,9.40
2023-03-22T06:47:26.444Z,9.38
2023-03-22T06:50:07.355Z,9.13
2023-03-22T06:52:53.757Z,8.68
2023-03-22T06:55:20.441Z,9.02
2023-03-22T06:57:47.070Z,7.95
2023-03-22T07:00:14.316Z,7.97
2023-03-22T07:02:40.962Z,8.13
2023-03-22T07:05:28.369Z,9.20
2023-03-22T07:07:55.245Z,7.07
2023-03-22T07:10:22.235Z,8.13
2023-03-22T07:12:50.238Z,7.18
2023-03-22T07:15:17.642Z,8.10
2023-03-22T07:18:07.917Z,6.85
2023-03-22T07:20:38.430Z,6.60
2023-03-22T07:23:05.403Z,5.88
2023-03-22T07:25:38.354Z,6.50
2023-03-22T07:28:16.852Z,5.82
2023-03-22T07:30:43.765Z,6.00
2023-03-22T07:33:12.316Z,5.85
2023-03-22T07:35:40.825Z,6.05
2023-03-22T07:38:07.674Z,5.93
2023-03-22T07:40:34.416Z,5.93
2023-03-22T07:43:02.310Z,4.95
2023-03-22T07:46:01.345Z,5.70
2023-03-22T07:48:46.378Z,5.35
2023-03-22T07:51:32.984Z,5.15
2023-03-22T07:53:59.628Z,5.15
2023-03-22T07:56:26.331Z,5.65
2023-03-22T07:58:53.246Z,5.30
2023-03-22T08:01:19.930Z,5.40
2023-03-22T08:03:58.757Z,5.20
2023-03-22T08:06:36.859Z,4.88
2023-03-22T08:09:04.754Z,4.90
2023-03-22T08:11:31.384Z,4.80
2023-03-22T08:13:58.915Z,5.05
2023-03-22T08:16:25.809Z,5.50
2023-03-22T08:18:52.464Z,5.00
2023-03-22T08:21:20.100Z,4.43
2023-03-22T08:23:51.818Z,4.50
2023-03-22T08:26:27.822Z,4.90
2023-03-22T08:28:57.240Z,5.43
2023-03-22T08:31:24.738Z,4.65
2023-03-22T08:33:51.475Z,4.88
2023-03-22T08:36:22.722Z,4.65
2023-03-22T08:38:57.289Z,4.28
2023-03-22T08:41:35.540Z,4.85
2023-03-22T08:44:02.262Z,4.53
2023-03-22T08:46:29.742Z,4.80
2023-03-22T08:48:59.008Z,5.05
2023-03-22T08:51:32.050Z,4.20
2023-03-22T08:54:13.617Z,3.85
2023-03-22T08:57:10.984Z,4.05
2023-03-22T08:59:52.253Z,4.03
2023-03-22T09:02:44.884Z,3.45
2023-03-22T09:05:13.492Z,3.53
2023-03-22T09:07:41.814Z,3.97
2023-03-22T09:10:21.342Z,3.80
2023-03-22T09:12:49.556Z,4.13
2023-03-22T09:15:16.403Z,3.50
2023-03-22T09:17:46.735Z,3.70
2023-03-22T09:20:14.101Z,4.05
2023-03-22T09:22:43.986Z,3.60
2023-03-22T09:25:13.493Z,3.42
2023-03-22T09:27:43.287Z,3.20
2023-03-22T09:30:10.286Z,4.70
2023-03-22T09:32:37.013Z,3.15
2023-03-22T09:35:06.349Z,3.80
2023-03-22T09:37:41.645Z,3.38
2023-03-22T09:40:08.955Z,2.83
2023-03-22T09:42:38.248Z,3.17
2023-03-22T09:45:12.846Z,3.40
2023-03-22T09:47:54.855Z,4.40
2023-03-22T09:50:24.305Z,3.00
2023-03-22T09:52:51.124Z,3.20
2023-03-22T09:55:56.632Z,3.38
2023-03-22T09:58:38.530Z,3.38
2023-03-22T10:01:37.798Z,3.10
2023-03-22T10:04:14.859Z,3.20
2023-03-22T10:06:47.077Z,3.03
2023-03-22T10:09:27.521Z,3.20
2023-03-22T10:12:00.816Z,2.60
2023-03-22T10:14:42.288Z,2.70
2023-03-22T10:17:12.787Z,3.00
2023-03-22T10:20:09.532Z,3.03
2023-03-22T10:22:38.744Z,3.25
2023-03-22T10:25:07.367Z,3.22
2023-03-22T10:27:34.426Z,3.45
2023-03-22T10:30:12.657Z,3.28
2023-03-22T10:32:57.053Z,3.65
2023-03-22T10:35:24.814Z,3.38
2023-03-22T10:37:52.448Z,3.45
2023-03-22T10:40:21.865Z,3.70
2023-03-22T10:42:55.656Z,3.20
2023-03-22T10:45:24.798Z,3.45
2023-03-22T10:48:00.638Z,3.05
2023-03-22T10:50:33.213Z,3.72
2023-03-22T10:53:11.287Z,3.67
2023-03-22T10:55:42.995Z,2.80
2023-03-22T10:58:15.894Z,3.05
2023-03-22T11:00:54.722Z,3.05
2023-03-22T11:03:36.921Z,2.67
2023-03-22T11:06:07.088Z,2.80
2023-03-22T11:08:47.395Z,2.60
2023-03-22T11:11:39.765Z,3.00
2023-03-22T11:14:31.415Z,3.10
2023-03-22T11:17:00.284Z,2.60
2023-03-22T11:19:29.289Z,2.65
2023-03-22T11:21:57.435Z,2.75
2023-03-22T11:24:28.737Z,2.42
2023-03-22T11:27:03.218Z,2.72
2023-03-22T11:29:40.317Z,3.33
2023-03-22T11:32:19.363Z,2.60
2023-03-22T11:34:46.467Z,2.20
2023-03-22T11:37:18.153Z,2.75
2023-03-22T11:39:50.713Z,2.58
2023-03-22T11:42:21.000Z,2.80
2023-03-22T11:44:47.698Z,2.67
2023-03-22T11:47:14.349Z,2.92
2023-03-22T11:49:46.610Z,2.97
2023-03-22T11:52:23.069Z,3.15
2023-03-22T11:54:50.431Z,3.20
2023-03-22T11:57:26.458Z,3.35
2023-03-22T12:00:07.149Z,3.25
2023-03-22T12:03:01.970Z,2.95
2023-03-22T12:05:31.008Z,3.78
2023-03-22T12:08:04.776Z,3.53
2023-03-22T12:10:37.077Z,3.30
2023-03-22T12:13:15.462Z,3.38
2023-03-22T12:15:48.934Z,4.68
2023-03-22T12:18:47.336Z,3.40
2023-03-22T12:21:13.994Z,3.67
2023-03-22T12:23:40.655Z,3.53
2023-03-22T12:26:10.427Z,3.45
2023-03-22T12:28:54.470Z,3.58
2023-03-22T12:31:28.198Z,3.33
2023-03-22T12:33:57.125Z,3.17
2023-03-22T12:36:30.349Z,3.42
2023-03-22T12:38:58.886Z,3.40
2023-03-22T12:41:28.322Z,3.08
2023-03-22T12:44:01.690Z,3.03
2023-03-22T12:46:51.721Z,3.33
2023-03-22T12:49:42.376Z,3.17
2023-03-22T12:52:44.724Z,3.35
2023-03-22T12:55:37.308Z,3.42
2023-03-22T12:58:08.450Z,3.28
2023-03-22T13:00:40.956Z,3.15
2023-03-22T13:03:21.037Z,3.30
2023-03-22T13:05:50.253Z,3.22
2023-03-22T13:08:21.625Z,3.28
2023-03-22T13:11:01.296Z,3.78
2023-03-22T13:13:28.186Z,3.20
2023-03-22T13:16:10.916Z,4.07
2023-03-22T13:18:37.960Z,3.50
2023-03-22T13:21:15.387Z,3.60
2023-03-22T13:23:54.077Z,3.80
2023-03-22T13:26:28.106Z,3.80
2023-03-22T13:28:59.499Z,3.40
2023-03-22T13:31:39.324Z,3.60
2023-03-22T13:34:13.022Z,3.88
2023-03-22T13:39:10.245Z,4.63
2023-03-22T13:41:36.968Z,4.82
2023-03-22T13:44:21.111Z,4.07
2023-03-22T13:46:52.655Z,4.10
2023-03-22T13:49:32.959Z,4.13
2023-03-22T13:52:01.638Z,4.20
2023-03-22T13:54:38.698Z,4.15
2023-03-22T13:57:17.489Z,3.83
2023-03-22T14:00:31.849Z,3.78
2023-03-22T14:03:02.050Z,3.92
2023-03-22T14:05:30.931Z,3.45
2023-03-22T14:07:59.336Z,4.57
2023-03-22T14:10:47.218Z,4.03
2023-03-22T14:13:19.341Z,4.18
2023-03-22T14:15:50.014Z,4.20
2023-03-22T14:18:32.924Z,4.35
2023-03-22T14:21:02.094Z,3.63
